Time;durP1;ratioP1;P1;durP2;ratioP2;P2;SDS_P1;SDS_P2;PMS_P1;PMS_P2;Temp;Humidity;BMP_temperature;BMP_pressure;BME280_temperature;BME280_humidity;BME280_pressure;Samples;Min_cycle;Max_cycle;Signal;HPM_P1;HPM_P2
2021/11/15 00:02:05;;;;;;;17.25;12.57;;;9.20;99.90;;;;;;5064400;28;20081;-86
2021/11/15 00:04:33;;;;;;;15.68;11.02;;;9.30;99.90;;;;;;5067567;28;20024;-87
2021/11/15 00:07:05;;;;;;;17.45;13.30;;;9.30;99.90;;;;;;5067862;28;20063;-85
2021/11/15 00:09:34;;;;;;;16.90;12.07;;;9.20;99.90;;;;;;5068725;28;20410;-84
2021/11/15 00:12:02;;;;;;;17.23;12.43;;;9.20;99.90;;;;;;5068174;28;20033;-84
2021/11/15 00:14:28;;;;;;;18.83;12.85;;;9.20;99.90;;;;;;5068392;28;20024;-85
2021/11/15 00:16:55;;;;;;;18.48;13.02;;;9.20;99.90;;;;;;5067664;28;20142;-86
2021/11/15 00:19:21;;;;;;;17.63;12.75;;;9.20;99.90;;;;;;5067813;28;20021;-85
2021/11/15 00:21:47;;;;;;;18.33;13.32;;;9.20;99.90;;;;;;5069634;28;20024;-86
2021/11/15 00:24:13;;;;;;;16.92;12.98;;;9.20;99.90;;;;;;5068147;28;20063;-86
2021/11/15 00:26:39;;;;;;;18.45;13.40;;;9.20;99.90;;;;;;5068452;28;20028;-86
2021/11/15 00:29:05;;;;;;;16.08;12.52;;;9.20;99.90;;;;;;5069044;28;20551;-85
2021/11/15 00:31:31;;;;;;;18.75;13.30;;;9.20;99.90;;;;;;5068523;28;20448;-85
2021/11/15 00:33:57;;;;;;;19.05;13.23;;;9.20;99.90;;;;;;5068686;28;20025;-85
2021/11/15 00:36:25;;;;;;;16.30;12.35;;;9.10;99.90;;;;;;5068879;28;20381;-85
2021/11/15 00:38:57;;;;;;;18.23;13.13;;;9.20;99.90;;;;;;5068515;28;20396;-85
2021/11/15 00:41:23;;;;;;;19.08;13.45;;;9.10;99.90;;;;;;5069293;28;20104;-86
2021/11/15 00:43:49;;;;;;;18.27;13.32;;;9.10;99.90;;;;;;5067532;28;20112;-85
2021/11/15 00:46:15;;;;;;;16.70;12.38;;;9.10;99.90;;;;;;5068918;28;20376;-84
2021/11/15 00:48:41;;;;;;;18.98;13.35;;;9.10;99.90;;;;;;5067894;28;20539;-86
2021/11/15 00:51:07;;;;;;;17.40;12.73;;;9.10;99.90;;;;;;5066163;28;20464;-85
2021/11/15 00:53:33;;;;;;;18.15;12.48;;;9.10;99.90;;;;;;5069675;28;20035;-85
2021/11/15 00:55:59;;;;;;;17.63;12.60;;;9.10;99.90;;;;;;5071821;28;20375;-85
2021/11/15 00:58:25;;;;;;;18.75;13.57;;;9.10;99.90;;;;;;5072132;28;20432;-85
2021/11/15 01:00:51;;;;;;;17.15;13.38;;;9.00;99.90;;;;;;5073129;28;20054;-84
2021/11/15 01:03:18;;;;;;;20.27;15.05;;;9.00;99.90;;;;;;5071812;28;20024;-84
2021/11/15 01:05:49;;;;;;;20.13;14.45;;;9.00;99.90;;;;;;5072916;28;20024;-86
2021/11/15 01:08:17;;;;;;;18.20;14.05;;;9.00;99.90;;;;;;5070658;28;20106;-85
2021/11/15 01:10:45;;;;;;;18.90;13.88;;;9.00;99.90;;;;;;5071228;28;20032;-85
2021/11/15 01:13:12;;;;;;;21.33;15.27;;;9.00;99.90;;;;;;5070580;28;20482;-85
2021/11/15 01:15:39;;;;;;;19.10;13.30;;;8.90;99.90;;;;;;5070733;28;20025;-85
2021/11/15 01:18:06;;;;;;;17.83;12.60;;;8.90;99.90;;;;;;5070991;28;20035;-84
2021/11/15 01:20:34;;;;;;;15.80;11.57;;;9.00;99.90;;;;;;5071680;28;20041;-85
2021/11/15 01:23:01;;;;;;;16.65;12.20;;;8.90;99.90;;;;;;5071692;28;20531;-86
2021/11/15 01:25:27;;;;;;;18.05;12.38;;;8.90;99.90;;;;;;5072850;28;20017;-85
2021/11/15 01:27:57;;;;;;;19.60;12.50;;;9.00;99.90;;;;;;5071456;28;20473;-86
2021/11/15 01:30:24;;;;;;;17.67;12.68;;;8.90;99.90;;;;;;5070537;28;20029;-86
2021/11/15 01:32:53;;;;;;;20.48;14.30;;;8.90;99.90;;;;;;5071525;28;20353;-86
2021/11/15 01:35:19;;;;;;;20.30;14.45;;;8.90;99.90;;;;;;5070988;28;20120;-86
2021/11/15 01:37:45;;;;;;;18.23;13.40;;;8.90;99.90;;;;;;5070951;28;20155;-85
2021/11/15 01:40:14;;;;;;;20.15;14.13;;;8.90;99.90;;;;;;5070997;28;20376;-85
2021/11/15 01:42:40;;;;;;;18.88;13.05;;;8.80;99.90;;;;;;5069539;28;20115;-85
2021/11/15 01:45:10;;;;;;;18.88;14.02;;;8.80;99.90;;;;;;5071021;28;20028;-86
2021/11/15 01:47:37;;;;;;;18.92;13.88;;;8.90;99.90;;;;;;5069367;28;20028;-86
2021/11/15 01:50:10;;;;;;;21.05;14.18;;;8.90;99.90;;;;;;5070777;28;20033;-84
2021/11/15 01:52:39;;;;;;;20.85;15.07;;;8.80;99.90;;;;;;5055024;28;20021;-85
2021/11/15 01:55:06;;;;;;;20.27;14.43;;;8.80;99.90;;;;;;5071403;28;20365;-85
2021/11/15 01:57:32;;;;;;;20.48;15.07;;;8.80;99.90;;;;;;5072119;28;20455;-86
2021/11/15 01:59:59;;;;;;;21.25;14.68;;;8.80;99.90;;;;;;5071423;28;20017;-84
2021/11/15 02:02:26;;;;;;;20.88;15.13;;;8.80;99.90;;;;;;5070445;28;20025;-85
2021/11/15 02:04:57;;;;;;;22.00;15.05;;;8.80;99.90;;;;;;5072332;28;20040;-85
2021/11/15 02:07:25;;;;;;;20.88;14.27;;;8.70;99.90;;;;;;5070030;28;20580;-85
2021/11/15 02:09:52;;;;;;;22.23;14.48;;;8.70;99.90;;;;;;5073566;28;20063;-84
2021/11/15 02:12:18;;;;;;;19.92;14.23;;;8.80;99.90;;;;;;5075259;28;20095;-85
2021/11/15 02:14:44;;;;;;;20.08;14.70;;;8.80;99.90;;;;;;5075163;28;20094;-85
2021/11/15 02:17:09;;;;;;;23.50;15.98;;;8.70;99.90;;;;;;5074148;28;20059;-85
2021/11/15 02:19:35;;;;;;;21.67;15.75;;;8.70;99.90;;;;;;5073564;28;20423;-86
2021/11/15 02:22:02;;;;;;;23.73;16.50;;;8.70;99.90;;;;;;5071917;28;20016;-85
2021/11/15 02:24:27;;;;;;;24.42;17.27;;;8.70;99.90;;;;;;5073508;28;20067;-85
2021/11/15 02:26:54;;;;;;;25.52;17.13;;;8.70;99.90;;;;;;5072101;28;20021;-85
2021/11/15 02:29:20;;;;;;;21.45;15.63;;;8.70;99.90;;;;;;5072980;28;20488;-85
2021/11/15 02:31:46;;;;;;;20.55;15.32;;;8.70;99.90;;;;;;5073338;28;20388;-85
2021/11/15 02:34:12;;;;;;;20.00;15.10;;;8.70;99.90;;;;;;5073417;28;20024;-85
2021/11/15 02:36:38;;;;;;;23.48;15.60;;;8.70;99.90;;;;;;5073366;28;20043;-84
2021/11/15 02:39:05;;;;;;;20.38;13.68;;;8.70;99.90;;;;;;5073594;28;20025;-84
2021/11/15 02:41:31;;;;;;;22.30;14.90;;;8.70;99.90;;;;;;5073629;28;20025;-85
2021/11/15 02:44:01;;;;;;;19.23;14.63;;;8.70;99.90;;;;;;5072824;28;20024;-83
2021/11/15 02:46:30;;;;;;;23.33;15.65;;;8.70;99.90;;;;;;5073298;28;20035;-84
2021/11/15 02:49:01;;;;;;;22.42;16.80;;;8.70;99.90;;;;;;5073119;28;20020;-85
2021/11/15 02:51:26;;;;;;;21.08;15.02;;;8.70;99.90;;;;;;5072821;28;20037;-83
2021/11/15 02:53:56;;;;;;;22.02;15.02;;;8.80;99.90;;;;;;5073579;28;20043;-85
2021/11/15 02:56:22;;;;;;;24.15;16.95;;;8.70;99.90;;;;;;5070434;28;20063;-84
2021/11/15 02:58:48;;;;;;;22.70;17.27;;;8.70;99.90;;;;;;5072247;28;20073;-88
2021/11/15 03:01:17;;;;;;;23.00;16.55;;;8.70;99.90;;;;;;5072172;28;20013;-85
2021/11/15 03:03:43;;;;;;;23.42;16.77;;;8.70;99.90;;;;;;5072420;28;20025;-85
2021/11/15 03:06:10;;;;;;;23.33;16.80;;;8.70;99.90;;;;;;5073100;28;20028;-84
2021/11/15 03:08:39;;;;;;;26.98;18.63;;;8.60;99.90;;;;;;5070760;28;20202;-85
2021/11/15 03:11:07;;;;;;;25.50;17.15;;;8.60;99.90;;;;;;5071924;28;20017;-85
2021/11/15 03:13:37;;;;;;;28.60;19.60;;;8.60;99.90;;;;;;5071990;28;20028;-85
2021/11/15 03:16:04;;;;;;;25.88;18.23;;;8.60;99.90;;;;;;5071208;28;20388;-86
2021/11/15 03:18:33;;;;;;;25.40;17.40;;;8.60;99.90;;;;;;5071520;28;20028;-85
2021/11/15 03:21:06;;;;;;;28.33;20.73;;;8.60;99.90;;;;;;5071848;28;20016;-86
2021/11/15 03:23:34;;;;;;;28.27;20.15;;;8.50;99.90;;;;;;5066186;28;20044;-86
2021/11/15 03:26:02;;;;;;;27.48;19.23;;;8.50;99.90;;;;;;5072673;28;20468;-84
2021/11/15 03:28:41;;;;;;;24.63;17.48;;;8.50;99.90;;;;;;5071781;28;20024;-85
2021/11/15 03:31:21;;;;;;;25.42;17.33;;;8.50;99.90;;;;;;5071479;28;20062;-85
2021/11/15 03:33:49;;;;;;;24.35;16.70;;;8.50;99.90;;;;;;5071539;28;20504;-85
2021/11/15 03:36:16;;;;;;;24.25;16.90;;;8.50;99.90;;;;;;5071609;28;20016;-85
2021/11/15 03:38:42;;;;;;;25.67;17.48;;;8.50;99.90;;;;;;5072596;28;20027;-85
2021/11/15 03:41:08;;;;;;;27.15;18.48;;;8.50;99.90;;;;;;5071784;28;20120;-85
2021/11/15 03:43:38;;;;;;;25.77;17.38;;;8.50;99.90;;;;;;5072328;28;20024;-85
2021/11/15 03:46:09;;;;;;;26.38;18.98;;;8.50;99.90;;;;;;5073470;28;20020;-85
2021/11/15 03:48:38;;;;;;;28.58;19.60;;;8.50;99.90;;;;;;5072585;28;20082;-85
2021/11/15 03:51:08;;;;;;;25.77;18.20;;;8.50;99.90;;;;;;5072437;28;20036;-85
2021/11/15 03:53:43;;;;;;;26.42;17.13;;;8.50;99.90;;;;;;5073475;28;20025;-85
2021/11/15 03:56:13;;;;;;;25.30;17.48;;;8.50;99.90;;;;;;5072404;28;20123;-85
2021/11/15 03:58:42;;;;;;;26.85;18.90;;;8.50;99.90;;;;;;5072370;28;20476;-85
2021/11/15 04:01:10;;;;;;;25.98;18.17;;;8.50;99.90;;;;;;5072066;28;20020;-85
2021/11/15 04:03:40;;;;;;;25.10;17.80;;;8.50;99.90;;;;;;5073104;28;20111;-85
2021/11/15 04:06:23;;;;;;;26.30;18.33;;;8.50;99.90;;;;;;5072333;28;20016;-85
2021/11/15 04:08:51;;;;;;;25.50;17.60;;;8.60;99.90;;;;;;5071531;28;20051;-84
2021/11/15 04:11:19;;;;;;;23.75;16.92;;;8.60;99.90;;;;;;5072455;28;20021;-85
2021/11/15 04:13:47;;;;;;;27.05;17.75;;;8.60;99.90;;;;;;5072346;28;20380;-85
2021/11/15 04:16:19;;;;;;;25.35;18.35;;;8.60;99.90;;;;;;5072277;28;20035;-85
2021/11/15 04:18:58;;;;;;;27.77;20.55;;;8.60;99.90;;;;;;5073044;28;20048;-85
2021/11/15 04:21:26;;;;;;;27.38;19.50;;;8.60;99.90;;;;;;5072131;28;20181;-85
2021/11/15 04:23:53;;;;;;;29.05;19.63;;;8.60;99.90;;;;;;5072138;28;20353;-85
2021/11/15 04:26:19;;;;;;;29.13;19.75;;;8.50;99.90;;;;;;5073451;28;20370;-85
2021/11/15 04:28:48;;;;;;;28.00;20.17;;;8.60;99.90;;;;;;5073660;28;20017;-85
2021/11/15 04:31:14;;;;;;;27.50;19.55;;;8.60;99.90;;;;;;5077308;28;20021;-85
2021/11/15 04:33:41;;;;;;;31.17;20.98;;;8.50;99.90;;;;;;5076226;28;20082;-85
2021/11/15 04:36:08;;;;;;;33.55;23.10;;;8.50;99.90;;;;;;5077780;28;20031;-82
2021/11/15 04:38:37;;;;;;;33.22;24.65;;;8.50;99.90;;;;;;5075807;28;20025;-85
2021/11/15 04:41:03;;;;;;;29.70;21.15;;;8.50;99.90;;;;;;5077164;28;20130;-85
2021/11/15 04:43:29;;;;;;;31.98;22.73;;;8.40;99.90;;;;;;5075875;28;20016;-85
2021/11/15 04:45:56;;;;;;;29.67;20.95;;;8.40;99.90;;;;;;5077115;28;20079;-86
2021/11/15 04:48:22;;;;;;;28.70;20.02;;;8.40;99.90;;;;;;5075450;28;20040;-85
2021/11/15 04:50:48;;;;;;;28.58;20.30;;;8.40;99.90;;;;;;5075553;28;20417;-84
2021/11/15 04:53:14;;;;;;;31.65;22.40;;;8.40;99.90;;;;;;5075202;28;20020;-86
2021/11/15 04:55:40;;;;;;;34.70;23.10;;;8.40;99.90;;;;;;5076719;28;20032;-85
2021/11/15 04:58:06;;;;;;;32.38;22.33;;;8.40;99.90;;;;;;5077022;28;20578;-85
2021/11/15 05:00:34;;;;;;;32.42;22.25;;;8.30;99.90;;;;;;5075974;28;20464;-85
2021/11/15 05:03:00;;;;;;;29.08;20.25;;;8.30;99.90;;;;;;5076367;28;20023;-85
2021/11/15 05:05:26;;;;;;;32.28;22.17;;;8.40;99.90;;;;;;5075463;28;20503;-85
2021/11/15 05:07:56;;;;;;;29.75;22.40;;;8.30;99.90;;;;;;5075136;28;20162;-85
2021/11/15 05:10:25;;;;;;;29.02;20.17;;;8.30;99.90;;;;;;5075326;28;20039;-85
2021/11/15 05:12:53;;;;;;;29.85;21.02;;;8.30;99.90;;;;;;5076647;28;20027;-85
2021/11/15 05:15:19;;;;;;;27.02;19.98;;;8.40;99.90;;;;;;5076386;28;20074;-85
2021/11/15 05:17:47;;;;;;;26.42;18.95;;;8.40;99.90;;;;;;5074986;28;20040;-85
2021/11/15 05:20:14;;;;;;;26.20;17.73;;;8.40;99.90;;;;;;5075124;28;20052;-85
2021/11/15 05:22:40;;;;;;;25.75;19.02;;;8.40;99.90;;;;;;5076496;28;20029;-85
2021/11/15 05:25:13;;;;;;;26.73;19.50;;;8.40;99.90;;;;;;5075027;28;20017;-85
2021/11/15 05:27:43;;;;;;;26.50;18.23;;;8.40;99.90;;;;;;5075004;28;20031;-85
2021/11/15 05:30:12;;;;;;;30.80;21.52;;;8.40;99.90;;;;;;5075019;28;20040;-85
2021/11/15 05:32:38;;;;;;;28.02;19.42;;;8.40;99.90;;;;;;5074690;28;20013;-85
2021/11/15 05:35:08;;;;;;;30.73;21.23;;;8.40;99.90;;;;;;5069504;28;20058;-85
2021/11/15 05:37:36;;;;;;;26.73;19.27;;;8.40;99.90;;;;;;5073063;28;20020;-85
2021/11/15 05:40:04;;;;;;;30.38;21.58;;;8.40;99.90;;;;;;5071205;28;20055;-84
2021/11/15 05:42:30;;;;;;;27.98;19.40;;;8.40;99.90;;;;;;5073018;28;20089;-85
2021/11/15 05:44:56;;;;;;;30.92;20.40;;;8.40;99.90;;;;;;5072698;28;20108;-85
2021/11/15 05:47:22;;;;;;;28.83;19.85;;;8.40;99.90;;;;;;5072373;28;20032;-84
2021/11/15 05:49:48;;;;;;;32.25;20.92;;;8.40;99.90;;;;;;5073833;28;20154;-84
2021/11/15 05:52:16;;;;;;;28.67;20.35;;;8.40;99.90;;;;;;5073589;28;20174;-85
2021/11/15 05:54:42;;;;;;;29.58;20.08;;;8.30;99.90;;;;;;5072863;28;20020;-84
2021/11/15 05:57:08;;;;;;;29.67;20.50;;;8.30;99.90;;;;;;5073199;28;20021;-84
2021/11/15 05:59:34;;;;;;;27.42;19.40;;;8.40;99.90;;;;;;5072093;28;20025;-84
2021/11/15 06:02:00;;;;;;;28.50;19.75;;;8.40;99.90;;;;;;5073519;28;20360;-84
2021/11/15 06:04:26;;;;;;;30.17;20.88;;;8.40;99.90;;;;;;5073630;28;20025;-85
2021/11/15 06:06:52;;;;;;;36.00;23.83;;;8.30;99.90;;;;;;5071541;28;20029;-85
2021/11/15 06:09:18;;;;;;;32.28;22.77;;;8.30;99.90;;;;;;5071543;28;20467;-85
2021/11/15 06:11:45;;;;;;;31.88;21.90;;;8.30;99.90;;;;;;5072808;28;20032;-85
2021/11/15 06:14:11;;;;;;;31.73;21.10;;;8.30;99.90;;;;;;5072014;28;20031;-85
2021/11/15 06:16:38;;;;;;;27.52;20.02;;;8.30;99.90;;;;;;5071865;28;20029;-85
2021/11/15 06:19:04;;;;;;;25.98;19.05;;;8.30;99.90;;;;;;5072010;28;20020;-85
2021/11/15 06:21:31;;;;;;;31.17;21.48;;;8.30;99.90;;;;;;5071658;28;20090;-85
2021/11/15 06:24:01;;;;;;;28.58;19.58;;;8.30;99.90;;;;;;5072211;28;20529;-85
2021/11/15 06:26:33;;;;;;;27.70;18.95;;;8.40;99.90;;;;;;5073059;28;20027;-86
2021/11/15 06:29:02;;;;;;;27.42;19.55;;;8.40;99.90;;;;;;5072998;28;20064;-85
2021/11/15 06:31:28;;;;;;;28.52;18.80;;;8.30;99.90;;;;;;5072295;28;20044;-86
2021/11/15 06:33:54;;;;;;;28.35;20.15;;;8.30;99.90;;;;;;5072414;28;20056;-85
2021/11/15 06:36:22;;;;;;;30.00;20.73;;;8.30;99.90;;;;;;5073372;28;20047;-85
2021/11/15 06:38:49;;;;;;;26.88;18.20;;;8.30;99.90;;;;;;5072742;28;20017;-85
2021/11/15 06:41:16;;;;;;;25.65;17.15;;;8.20;99.90;;;;;;5073020;28;20475;-86
2021/11/15 06:43:41;;;;;;;24.10;16.52;;;8.20;99.90;;;;;;5073412;28;20425;-85
2021/11/15 06:46:07;;;;;;;23.50;15.85;;;8.20;99.90;;;;;;5072984;28;20040;-85
2021/11/15 06:48:40;;;;;;;23.30;15.30;;;8.20;99.90;;;;;;5073017;28;20151;-85
2021/11/15 06:51:14;;;;;;;21.90;15.55;;;8.30;99.90;;;;;;5070232;28;20051;-84
2021/11/15 06:53:44;;;;;;;23.85;15.40;;;8.30;99.90;;;;;;5055838;28;20468;-83
2021/11/15 06:56:11;;;;;;;22.20;15.40;;;8.30;99.90;;;;;;5071961;28;20376;-83
2021/11/15 06:58:37;;;;;;;25.60;16.35;;;8.30;99.90;;;;;;5071812;28;20033;-84
2021/11/15 07:01:08;;;;;;;23.13;15.88;;;8.30;99.90;;;;;;5071449;28;20021;-84
2021/11/15 07:03:35;;;;;;;22.70;14.70;;;8.30;99.90;;;;;;5073350;28;20017;-84
2021/11/15 07:06:01;;;;;;;23.23;15.20;;;8.30;99.90;;;;;;5073741;28;20024;-85
2021/11/15 07:08:28;;;;;;;23.80;15.73;;;8.30;99.90;;;;;;5086500;28;20048;-85
2021/11/15 07:10:54;;;;;;;21.13;15.23;;;8.30;99.90;;;;;;5074589;28;20777;-85
2021/11/15 07:13:20;;;;;;;23.60;15.10;;;8.30;99.90;;;;;;5074309;28;20012;-84
2021/11/15 07:15:48;;;;;;;21.70;15.05;;;8.30;99.90;;;;;;5074917;28;20043;-85
2021/11/15 07:18:15;;;;;;;22.50;15.77;;;8.30;99.90;;;;;;5074715;28;20020;-85
2021/11/15 07:20:43;;;;;;;21.73;13.93;;;8.30;99.90;;;;;;5092841;28;20024;-85
2021/11/15 07:23:12;;;;;;;22.92;15.38;;;8.30;99.90;;;;;;5090670;28;20020;-85
2021/11/15 07:25:38;;;;;;;23.85;15.05;;;8.30;99.90;;;;;;5075436;28;20050;-85
2021/11/15 07:28:05;;;;;;;23.15;14.05;;;8.30;99.90;;;;;;5075796;28;20395;-84
2021/11/15 07:30:31;;;;;;;20.83;14.45;;;8.30;99.90;;;;;;5075709;28;20052;-85
2021/11/15 07:32:57;;;;;;;20.70;14.20;;;8.30;99.90;;;;;;5074615;28;20056;-85
2021/11/15 07:35:23;;;;;;;21.95;14.00;;;8.30;99.90;;;;;;5093563;28;20386;-85
2021/11/15 07:37:49;;;;;;;22.50;14.40;;;8.30;99.90;;;;;;5075336;28;20020;-85
2021/11/15 07:40:17;;;;;;;21.10;14.50;;;8.20;99.90;;;;;;5075280;28;20479;-85
2021/11/15 07:42:43;;;;;;;21.70;14.05;;;8.30;99.90;;;;;;5073841;28;20035;-85
2021/11/15 07:45:09;;;;;;;20.75;13.52;;;8.20;99.90;;;;;;5074694;28;20016;-85
2021/11/15 07:47:35;;;;;;;20.65;13.98;;;8.20;99.90;;;;;;5075331;28;20035;-85
2021/11/15 07:50:04;;;;;;;22.30;15.07;;;8.20;99.90;;;;;;5093417;28;20012;-85
2021/11/15 07:52:31;;;;;;;20.67;13.80;;;8.20;99.90;;;;;;5074699;28;20429;-85
2021/11/15 07:55:01;;;;;;;22.80;15.48;;;8.10;99.90;;;;;;5073957;28;20020;-84
2021/11/15 07:57:27;;;;;;;23.38;15.38;;;8.10;99.90;;;;;;5092449;28;20031;-85
2021/11/15 07:59:53;;;;;;;23.10;14.73;;;8.10;99.90;;;;;;5074732;28;20036;-85
2021/11/15 08:02:19;;;;;;;21.40;14.60;;;8.10;99.90;;;;;;5074169;28;20089;-86
2021/11/15 08:04:49;;;;;;;22.20;14.82;;;8.10;99.90;;;;;;5092077;28;20020;-86
2021/11/15 08:07:15;;;;;;;23.02;14.98;;;8.10;99.90;;;;;;5074742;28;20063;-85
2021/11/15 08:09:41;;;;;;;20.70;14.82;;;8.00;99.90;;;;;;5074112;28;20035;-85
2021/11/15 08:12:09;;;;;;;22.73;15.00;;;8.00;99.90;;;;;;5090008;28;20085;-85
2021/11/15 08:14:39;;;;;;;23.30;16.08;;;8.00;99.90;;;;;;5072797;28;20053;-85
2021/11/15 08:17:07;;;;;;;20.85;14.07;;;8.00;99.90;;;;;;5072656;28;20020;-85
2021/11/15 08:19:34;;;;;;;22.08;14.43;;;8.00;99.90;;;;;;5072923;28;20024;-86
2021/11/15 08:21:59;;;;;;;20.77;13.32;;;8.00;99.90;;;;;;5072700;28;20036;-86
2021/11/15 08:24:52;;;;;;;20.95;13.93;;;8.00;99.90;;;;;;5073131;28;20603;-87
2021/11/15 08:27:18;;;;;;;18.42;11.93;;;8.10;99.90;;;;;;5057737;28;20081;-86
2021/11/15 08:29:46;;;;;;;18.30;11.43;;;8.10;99.90;;;;;;5091286;28;20020;-86
2021/11/15 08:32:17;;;;;;;17.95;11.82;;;8.00;99.90;;;;;;5072814;28;20028;-85
2021/11/15 08:34:43;;;;;;;17.88;11.73;;;8.00;99.90;;;;;;5072827;28;20024;-85
2021/11/15 08:37:12;;;;;;;19.27;12.07;;;8.00;99.90;;;;;;5072496;28;20032;-85
2021/11/15 08:39:39;;;;;;;19.60;12.40;;;8.00;99.90;;;;;;5072642;28;20082;-85
2021/11/15 08:42:09;;;;;;;17.60;11.18;;;8.00;99.90;;;;;;5090871;28;20031;-84
2021/11/15 08:44:40;;;;;;;17.75;11.52;;;8.00;99.90;;;;;;5073539;28;20055;-86
2021/11/15 08:47:06;;;;;;;18.65;11.40;;;8.00;99.90;;;;;;5056376;28;20020;-86
2021/11/15 08:49:36;;;;;;;15.20;10.68;;;8.00;99.90;;;;;;5073528;28;20059;-86
2021/11/15 08:52:05;;;;;;;18.63;11.60;;;8.00;99.90;;;;;;5090460;28;20447;-86
2021/11/15 08:54:32;;;;;;;19.48;12.68;;;8.00;99.90;;;;;;5083931;28;20020;-86
2021/11/15 08:57:01;;;;;;;19.40;12.13;;;7.90;99.90;;;;;;5085950;28;20032;-86
2021/11/15 08:59:30;;;;;;;18.40;11.98;;;8.00;99.90;;;;;;5053471;28;20064;-86
2021/11/15 09:01:57;;;;;;;17.00;11.73;;;8.00;99.90;;;;;;5042728;28;20028;-84
2021/11/15 09:04:23;;;;;;;20.85;12.85;;;8.00;99.90;;;;;;5069302;28;20249;-85
2021/11/15 09:06:50;;;;;;;19.23;12.88;;;8.00;99.90;;;;;;5084957;28;20422;-84
2021/11/15 09:09:17;;;;;;;20.25;12.57;;;8.00;99.90;;;;;;5063884;28;20056;-85
2021/11/15 09:11:49;;;;;;;19.70;12.77;;;8.00;99.90;;;;;;5063334;28;20024;-84
2021/11/15 09:14:17;;;;;;;20.65;13.00;;;8.00;99.90;;;;;;5073354;28;20016;-84
2021/11/15 09:16:48;;;;;;;20.65;13.00;;;7.90;99.90;;;;;;5087031;28;20028;-85
2021/11/15 09:19:16;;;;;;;22.08;14.27;;;8.00;99.90;;;;;;5059963;28;20052;-85
2021/11/15 09:21:42;;;;;;;20.30;13.32;;;7.90;99.90;;;;;;5085549;28;20036;-84
2021/11/15 09:24:12;;;;;;;18.73;11.75;;;8.00;99.90;;;;;;5075835;28;20068;-85
2021/11/15 09:26:39;;;;;;;20.15;12.90;;;8.00;99.90;;;;;;5092274;28;20428;-84
2021/11/15 09:29:07;;;;;;;19.63;12.73;;;8.00;99.90;;;;;;5094107;28;20020;-84
2021/11/15 09:31:34;;;;;;;22.60;13.52;;;8.00;99.90;;;;;;5076691;28;20053;-85
2021/11/15 09:34:00;;;;;;;23.70;14.38;;;8.00;99.90;;;;;;5094278;28;20016;-84
2021/11/15 09:36:26;;;;;;;24.05;14.50;;;8.00;99.90;;;;;;5075613;28;20607;-84
2021/11/15 09:38:55;;;;;;;25.85;15.40;;;8.00;99.90;;;;;;5076106;28;20035;-84
2021/11/15 09:41:23;;;;;;;25.20;15.07;;;8.00;99.90;;;;;;5075619;28;20093;-83
2021/11/15 09:43:50;;;;;;;24.75;15.48;;;8.00;99.90;;;;;;5075919;28;20134;-83
2021/11/15 09:46:19;;;;;;;23.25;14.15;;;7.90;99.90;;;;;;5094122;28;20025;-84
2021/11/15 09:48:51;;;;;;;26.33;15.38;;;7.90;99.90;;;;;;5076204;28;20042;-84
2021/11/15 09:51:19;;;;;;;21.83;14.03;;;7.90;99.90;;;;;;5093582;28;20028;-84
2021/11/15 09:53:47;;;;;;;20.30;12.95;;;7.90;99.90;;;;;;5094149;28;20017;-84
2021/11/15 09:56:14;;;;;;;21.10;13.40;;;7.80;99.90;;;;;;5075825;28;20042;-84
2021/11/15 09:58:41;;;;;;;18.73;11.65;;;7.80;99.90;;;;;;5075801;28;20035;-84
2021/11/15 10:01:09;;;;;;;19.45;12.23;;;7.80;99.90;;;;;;5055688;28;20024;-84
2021/11/15 10:03:35;;;;;;;19.77;11.88;;;7.80;99.90;;;;;;5058302;28;20028;-83
2021/11/15 10:06:06;;;;;;;19.75;11.25;;;7.80;99.90;;;;;;5075135;28;20079;-83
2021/11/15 10:08:54;;;;;;;19.85;10.30;;;7.80;99.90;;;;;;5074320;28;20056;-85
2021/11/15 10:11:23;;;;;;;18.00;10.18;;;7.90;99.90;;;;;;5075081;28;20036;-85
2021/11/15 10:13:53;;;;;;;17.48;10.57;;;7.80;99.90;;;;;;5074853;28;20051;-85
2021/11/15 10:16:24;;;;;;;18.50;10.50;;;7.80;99.90;;;;;;5074896;28;20034;-85
2021/11/15 10:19:00;;;;;;;16.85;9.63;;;7.90;99.90;;;;;;5093379;28;20024;-86
2021/11/15 10:21:33;;;;;;;18.20;10.63;;;7.80;99.90;;;;;;5074991;28;20028;-85
2021/11/15 10:24:15;;;;;;;22.00;11.63;;;7.80;99.90;;;;;;5074228;28;20164;-85
2021/11/15 10:26:53;;;;;;;17.83;10.63;;;7.80;99.90;;;;;;5074695;28;20077;-84
2021/11/15 10:29:26;;;;;;;18.10;10.88;;;7.80;99.90;;;;;;5078160;28;20082;-85
2021/11/15 10:32:01;;;;;;;18.17;10.57;;;7.80;99.90;;;;;;5074580;28;20027;-85
2021/11/15 10:34:35;;;;;;;17.48;10.05;;;7.90;99.90;;;;;;5074097;28;20048;-85
2021/11/15 10:37:15;;;;;;;17.55;9.75;;;7.80;99.90;;;;;;5074554;28;20028;-85
2021/11/15 10:39:50;;;;;;;16.40;9.63;;;7.90;99.90;;;;;;5074702;28;20106;-86
2021/11/15 10:42:35;;;;;;;21.95;11.63;;;7.80;99.90;;;;;;5075894;28;20023;-86
2021/11/15 10:45:03;;;;;;;16.65;9.30;;;7.80;99.90;;;;;;5076600;28;20031;-86
2021/11/15 10:47:48;;;;;;;18.42;10.05;;;7.80;99.90;;;;;;5076286;28;20028;-86
2021/11/15 10:50:51;;;;;;;22.33;12.18;;;7.80;99.90;;;;;;5076406;28;20462;-87
2021/11/15 10:53:33;;;;;;;20.35;11.55;;;7.70;99.90;;;;;;4988683;28;20065;-86
2021/11/15 10:56:26;;;;;;;20.60;11.60;;;7.60;99.90;;;;;;4989645;28;20039;-85
2021/11/15 10:58:54;;;;;;;21.52;11.60;;;7.60;99.90;;;;;;5071103;28;20024;-86
2021/11/15 11:01:28;;;;;;;18.70;11.07;;;7.60;99.90;;;;;;5073319;28;20575;-86
2021/11/15 11:04:22;;;;;;;21.48;11.57;;;7.60;99.90;;;;;;5072442;28;20047;-86
2021/11/15 11:07:17;;;;;;;21.80;12.63;;;7.60;99.90;;;;;;5091224;28;20581;-86
2021/11/15 11:09:45;;;;;;;26.98;13.75;;;7.60;99.90;;;;;;5066761;28;20131;-86
2021/11/15 11:12:21;;;;;;;21.60;12.93;;;7.60;99.90;;;;;;5070210;28;20106;-85
2021/11/15 11:14:50;;;;;;;24.13;13.85;;;7.50;99.90;;;;;;5070615;28;20119;-85
2021/11/15 11:17:18;;;;;;;21.52;13.30;;;7.50;99.90;;;;;;5067969;28;20032;-86
2021/11/15 11:20:09;;;;;;;18.80;11.23;;;7.50;99.90;;;;;;5070496;28;20057;-83
2021/11/15 11:25:34;;;;;;;21.48;12.27;;;7.60;99.90;;;;;;5056726;28;19962;-85
2021/11/15 11:28:31;;;;;;;19.98;12.35;;;7.60;99.90;;;;;;5071683;28;20029;-84
2021/11/15 11:31:00;;;;;;;24.25;13.20;;;7.60;99.90;;;;;;5072328;28;20021;-84
2021/11/15 11:33:30;;;;;;;21.17;12.15;;;7.50;99.90;;;;;;5071942;28;20051;-83
2021/11/15 11:36:04;;;;;;;23.58;12.82;;;7.50;99.90;;;;;;5067470;28;20392;-84
2021/11/15 11:38:32;;;;;;;19.35;11.55;;;7.50;99.90;;;;;;5071576;28;20032;-83
2021/11/15 11:40:58;;;;;;;21.63;12.32;;;7.50;99.90;;;;;;5070025;28;20115;-85
2021/11/15 11:43:27;;;;;;;21.15;11.88;;;7.50;99.90;;;;;;5070200;28;20108;-84
2021/11/15 11:45:53;;;;;;;21.90;11.98;;;7.60;99.90;;;;;;5070812;28;20056;-84
2021/11/15 11:48:19;;;;;;;23.67;13.57;;;7.60;99.90;;;;;;5069188;28;20079;-84
2021/11/15 11:50:48;;;;;;;24.17;12.98;;;7.50;99.90;;;;;;5069262;28;20025;-84
2021/11/15 11:53:28;;;;;;;23.92;13.20;;;7.60;99.90;;;;;;5070824;28;20024;-84
2021/11/15 11:55:58;;;;;;;20.35;11.90;;;7.50;99.90;;;;;;5070358;28;20055;-85
2021/11/15 11:58:25;;;;;;;20.35;12.18;;;7.50;99.90;;;;;;5069377;28;20115;-84
2021/11/15 12:00:56;;;;;;;20.10;11.73;;;7.50;99.90;;;;;;5068900;28;20031;-84
2021/11/15 12:03:24;;;;;;;20.65;11.98;;;7.60;99.90;;;;;;5069517;28;20090;-84
2021/11/15 12:05:54;;;;;;;16.70;10.63;;;7.60;99.90;;;;;;5070009;28;20056;-83
2021/11/15 12:08:50;;;;;;;19.30;10.63;;;7.60;99.90;;;;;;5068741;28;20062;-84
2021/11/15 12:11:22;;;;;;;18.55;11.60;;;7.60;99.90;;;;;;5042699;28;20040;-85
2021/11/15 12:13:48;;;;;;;21.33;11.88;;;7.60;99.90;;;;;;5069689;28;20025;-82
2021/11/15 12:16:16;;;;;;;19.65;11.13;;;7.50;99.90;;;;;;5070000;28;20170;-83
2021/11/15 12:19:04;;;;;;;19.30;12.40;;;7.60;99.90;;;;;;5052381;28;20037;-84
2021/11/15 12:21:36;;;;;;;19.88;11.75;;;7.60;99.90;;;;;;5069366;28;20020;-83
2021/11/15 12:24:17;;;;;;;18.70;11.43;;;7.60;99.90;;;;;;5070277;28;20119;-83
2021/11/15 12:26:46;;;;;;;18.30;11.18;;;7.50;99.90;;;;;;5069451;28;20444;-83
2021/11/15 12:29:25;;;;;;;22.23;11.80;;;7.60;99.90;;;;;;5068809;28;20104;-84
2021/11/15 12:31:54;;;;;;;18.95;11.57;;;7.60;99.90;;;;;;5067869;28;20048;-84
2021/11/15 12:34:23;;;;;;;17.02;10.88;;;7.60;99.90;;;;;;5069495;28;20033;-84
2021/11/15 12:36:53;;;;;;;17.38;10.18;;;7.60;99.90;;;;;;5069563;28;20028;-83
2021/11/15 12:39:23;;;;;;;18.23;10.40;;;7.60;99.90;;;;;;5068314;28;20016;-84
2021/11/15 12:42:23;;;;;;;20.55;11.20;;;7.60;99.90;;;;;;5068824;28;20047;-83
2021/11/15 12:45:18;;;;;;;16.77;9.60;;;7.60;99.90;;;;;;5069654;28;20024;-83
2021/11/15 12:47:48;;;;;;;19.08;11.45;;;7.60;99.90;;;;;;5069761;28;20412;-84
2021/11/15 12:50:27;;;;;;;20.13;11.27;;;7.60;99.90;;;;;;5071535;28;20118;-84
2021/11/15 12:52:59;;;;;;;21.42;11.52;;;7.60;99.90;;;;;;5072043;28;20174;-83